Time;durP1;ratioP1;P1;durP2;ratioP2;P2;SDS_P1;SDS_P2;PMS_P1;PMS_P2;Temp;Humidity;BMP_temperature;BMP_pressure;BME280_temperature;BME280_humidity;BME280_pressure;Samples;Min_cycle;Max_cycle;Signal;HPM_P1;HPM_P2
2024/02/09 00:01:21;;;;;;;5.05;2.60;;;5.70;99.90;;;;;;4897069;29;20092;-82
2024/02/09 00:03:48;;;;;;;5.32;2.75;;;5.70;99.90;;;;;;4879679;29;20053;-81
2024/02/09 00:06:15;;;;;;;4.85;2.30;;;5.70;99.90;;;;;;4866413;29;20048;-82
2024/02/09 00:08:42;;;;;;;5.95;2.35;;;5.80;99.90;;;;;;4881332;29;20048;-81
2024/02/09 00:11:11;;;;;;;5.85;2.92;;;5.80;99.90;;;;;;4881253;29;20064;-82
2024/02/09 00:13:42;;;;;;;5.55;2.63;;;5.80;99.90;;;;;;4896621;29;20055;-81
2024/02/09 00:16:10;;;;;;;6.03;2.88;;;5.80;99.90;;;;;;4866510;29;20108;-81
2024/02/09 00:18:39;;;;;;;5.00;2.60;;;5.80;99.90;;;;;;4897733;29;20049;-81
2024/02/09 00:21:10;;;;;;;5.65;2.67;;;5.80;99.90;;;;;;4881427;29;20501;-81
2024/02/09 00:23:38;;;;;;;5.18;2.28;;;5.80;99.90;;;;;;4881566;29;20517;-81
2024/02/09 00:26:06;;;;;;;5.53;2.88;;;5.90;99.90;;;;;;4880689;29;20077;-81
2024/02/09 00:28:33;;;;;;;5.15;2.47;;;5.90;99.90;;;;;;4844069;29;1093748;-81
2024/02/09 00:31:00;;;;;;;6.93;2.50;;;6.00;99.90;;;;;;4878672;29;20044;-81
2024/02/09 00:33:29;;;;;;;5.40;2.50;;;6.00;99.90;;;;;;4861261;29;20068;-82
2024/02/09 00:35:57;;;;;;;5.22;2.58;;;6.10;99.90;;;;;;4878627;29;20089;-82
2024/02/09 00:38:24;;;;;;;6.90;2.50;;;6.10;99.90;;;;;;4893616;29;20373;-82
2024/02/09 00:40:55;;;;;;;3.58;1.88;;;6.10;99.90;;;;;;4881687;29;20096;-81
2024/02/09 00:43:23;;;;;;;5.88;2.72;;;6.10;99.90;;;;;;4882178;29;20421;-82
2024/02/09 00:45:51;;;;;;;4.55;2.10;;;6.20;99.90;;;;;;4881519;29;20058;-81
2024/02/09 00:48:18;;;;;;;5.75;2.90;;;6.20;99.90;;;;;;4866267;29;20076;-81
2024/02/09 00:50:45;;;;;;;10.73;5.75;;;6.30;99.90;;;;;;4868423;29;20052;-82
2024/02/09 00:53:13;;;;;;;10.23;6.15;;;6.30;99.90;;;;;;4874428;29;20131;-81
2024/02/09 00:55:40;;;;;;;9.77;5.55;;;6.40;99.90;;;;;;4866022;29;20052;-81
2024/02/09 00:58:07;;;;;;;10.23;4.75;;;6.50;99.90;;;;;;4881375;29;20045;-82
2024/02/09 01:00:35;;;;;;;10.18;5.18;;;6.70;99.90;;;;;;4881453;29;20422;-81
2024/02/09 01:03:02;;;;;;;8.75;4.55;;;6.90;99.90;;;;;;4881322;29;20047;-81
2024/02/09 01:05:32;;;;;;;7.35;3.33;;;7.00;99.90;;;;;;4881426;29;20490;-81
2024/02/09 01:08:01;;;;;;;6.13;2.80;;;7.20;99.90;;;;;;4881285;29;20052;-81
2024/02/09 01:10:31;;;;;;;5.07;2.70;;;7.30;99.90;;;;;;4881124;29;20104;-81
2024/02/09 02:46:37;;;;;;;3.38;1.02;;;8.60;99.90;;;;;;4881302;29;20044;-80
2024/02/09 03:05:38;;;;;;;2.78;0.90;;;8.80;99.90;;;;;;4882406;29;20052;-80
2024/02/09 03:08:07;;;;;;;2.78;1.02;;;8.80;99.90;;;;;;4898807;29;20080;-80
2024/02/09 03:10:55;;;;;;;4.05;0.95;;;8.80;99.90;;;;;;4885548;29;20068;-81
2024/02/09 03:13:22;;;;;;;3.03;1.05;;;8.70;99.90;;;;;;4898707;29;20040;-80
2024/02/09 03:15:52;;;;;;;2.92;0.70;;;8.70;99.90;;;;;;4882356;29;20041;-80
2024/02/09 03:18:22;;;;;;;2.10;0.90;;;8.70;99.90;;;;;;4883425;29;20052;-80
2024/02/09 03:20:50;;;;;;;2.33;0.60;;;8.80;99.90;;;;;;4894264;29;20387;-80
2024/02/09 03:23:19;;;;;;;2.22;0.80;;;8.80;99.90;;;;;;4867358;29;20056;-81
2024/02/09 03:25:48;;;;;;;3.22;0.90;;;8.80;99.90;;;;;;4883036;29;20120;-80
2024/02/09 03:28:18;;;;;;;3.22;0.75;;;8.80;99.90;;;;;;4882204;29;20417;-80
2024/02/09 03:30:46;;;;;;;1.75;0.60;;;8.80;99.90;;;;;;4888123;29;20053;-81
2024/02/09 03:33:13;;;;;;;3.70;1.00;;;8.80;99.90;;;;;;4882655;29;20062;-80
2024/02/09 03:35:40;;;;;;;2.67;1.25;;;8.80;99.90;;;;;;4879462;29;20051;-81
2024/02/09 03:38:08;;;;;;;2.53;0.90;;;8.80;99.90;;;;;;4877318;29;20045;-80
2024/02/09 03:40:34;;;;;;;3.88;0.90;;;8.90;99.90;;;;;;4882662;29;20063;-80
2024/02/09 03:43:02;;;;;;;1.58;0.57;;;8.80;99.90;;;;;;4863976;29;20147;-81
2024/02/09 03:45:29;;;;;;;2.35;0.70;;;8.90;99.90;;;;;;4881293;29;20052;-81
2024/02/09 03:47:56;;;;;;;2.05;0.77;;;8.90;99.90;;;;;;4867182;29;20072;-80
2024/02/09 03:50:24;;;;;;;1.92;0.90;;;8.90;99.90;;;;;;4882285;29;20489;-81
2024/02/09 03:52:51;;;;;;;2.05;0.50;;;8.90;99.90;;;;;;4879327;29;20048;-81
2024/02/09 03:55:18;;;;;;;1.83;0.70;;;8.90;99.90;;;;;;4880589;29;20044;-81
2024/02/09 03:57:45;;;;;;;1.92;0.90;;;8.90;99.90;;;;;;4879413;29;20044;-80
2024/02/09 04:00:15;;;;;;;3.33;0.75;;;8.90;99.90;;;;;;4876603;29;20093;-81
2024/02/09 04:02:45;;;;;;;2.70;0.68;;;8.90;99.90;;;;;;4881648;29;20048;-80
2024/02/09 04:05:13;;;;;;;4.05;0.80;;;8.90;99.90;;;;;;4864283;29;20057;-80
2024/02/09 04:07:40;;;;;;;5.00;1.17;;;8.90;99.90;;;;;;4897704;29;20052;-80
2024/02/09 04:10:09;;;;;;;2.88;0.90;;;8.90;99.90;;;;;;4882061;29;20127;-80
2024/02/09 04:12:39;;;;;;;3.70;1.27;;;8.90;99.90;;;;;;4867624;29;20557;-80
2024/02/09 04:15:06;;;;;;;2.13;0.88;;;8.90;99.90;;;;;;4882099;29;20053;-80
2024/02/09 04:17:33;;;;;;;4.15;1.50;;;8.90;99.90;;;;;;4881801;29;20041;-80
2024/02/09 04:20:00;;;;;;;2.65;1.13;;;8.90;99.90;;;;;;4882137;29;20443;-80
2024/02/09 04:22:27;;;;;;;2.85;1.00;;;8.90;99.90;;;;;;4897183;29;20052;-80
2024/02/09 04:24:56;;;;;;;4.32;1.38;;;8.90;99.90;;;;;;4881908;29;20053;-80
2024/02/09 04:27:24;;;;;;;3.63;1.20;;;9.00;99.90;;;;;;4881888;29;20528;-80
2024/02/09 04:29:51;;;;;;;3.17;1.50;;;9.00;99.90;;;;;;4881207;29;20060;-80
2024/02/09 04:32:18;;;;;;;3.38;0.80;;;9.00;99.90;;;;;;4897540;29;20041;-80
2024/02/09 04:34:45;;;;;;;4.28;1.17;;;9.00;99.90;;;;;;4881620;29;20045;-80
2024/02/09 04:37:13;;;;;;;2.22;0.85;;;9.00;99.90;;;;;;4878554;29;20406;-80
2024/02/09 04:39:41;;;;;;;3.13;0.90;;;9.00;99.90;;;;;;4874979;29;20123;-80
2024/02/09 04:42:10;;;;;;;5.22;1.13;;;9.00;99.90;;;;;;4879021;29;20045;-80
2024/02/09 04:44:38;;;;;;;4.78;1.40;;;9.00;99.90;;;;;;4873781;29;20095;-80
2024/02/09 04:47:05;;;;;;;4.30;1.38;;;9.00;99.90;;;;;;4896905;29;20071;-80
2024/02/09 04:49:32;;;;;;;3.55;1.23;;;9.10;99.90;;;;;;4881840;29;20045;-80
2024/02/09 04:52:00;;;;;;;3.47;0.95;;;9.10;99.90;;;;;;4897122;29;20040;-80
2024/02/09 04:54:27;;;;;;;3.15;1.00;;;9.10;99.90;;;;;;4881450;29;20596;-80
2024/02/09 04:56:56;;;;;;;1.73;0.65;;;9.10;99.90;;;;;;4881481;29;20055;-80
2024/02/09 04:59:30;;;;;;;1.98;0.80;;;9.10;99.90;;;;;;4881729;29;20059;-81
2024/02/09 05:01:57;;;;;;;5.68;1.20;;;9.10;99.90;;;;;;4882391;29;20055;-80
2024/02/09 05:04:24;;;;;;;4.88;1.30;;;9.10;99.90;;;;;;4881439;29;20040;-80
2024/02/09 05:06:51;;;;;;;4.88;1.52;;;9.20;99.90;;;;;;4896834;29;20056;-81
2024/02/09 05:09:23;;;;;;;2.38;0.90;;;9.20;99.90;;;;;;4881391;29;20378;-80
2024/02/09 05:11:50;;;;;;;3.63;1.17;;;9.20;99.90;;;;;;4896548;29;20040;-80
2024/02/09 05:14:19;;;;;;;5.63;0.80;;;9.20;99.90;;;;;;4880451;29;20116;-80
2024/02/09 05:16:46;;;;;;;1.60;0.73;;;9.20;99.90;;;;;;4881531;29;20044;-80
2024/02/09 05:19:13;;;;;;;3.53;1.42;;;9.20;99.90;;;;;;4881133;29;20055;-80
2024/02/09 05:21:41;;;;;;;4.32;1.27;;;9.20;99.90;;;;;;4881245;29;20056;-80
2024/02/09 05:24:08;;;;;;;2.58;0.98;;;9.30;99.90;;;;;;4878662;29;20057;-80
2024/02/09 05:26:36;;;;;;;2.58;1.02;;;9.30;99.90;;;;;;4897619;29;20052;-80
2024/02/09 05:29:03;;;;;;;2.20;0.63;;;9.30;99.90;;;;;;4896195;29;20582;-80
2024/02/09 05:31:30;;;;;;;1.92;0.77;;;9.30;99.90;;;;;;4895862;29;20588;-80
2024/02/09 05:33:57;;;;;;;4.43;0.90;;;9.30;99.90;;;;;;4862439;29;20056;-80
2024/02/09 05:36:28;;;;;;;3.40;1.20;;;9.30;99.90;;;;;;4877635;29;20498;-80
2024/02/09 05:38:58;;;;;;;3.58;0.90;;;9.30;99.90;;;;;;4890666;29;20433;-80
2024/02/09 05:41:26;;;;;;;2.45;1.10;;;9.30;99.90;;;;;;4896087;29;20053;-80
2024/02/09 05:43:57;;;;;;;2.47;1.05;;;9.30;99.90;;;;;;4881247;29;20055;-80
2024/02/09 05:46:25;;;;;;;3.33;0.93;;;9.30;99.90;;;;;;4880380;29;20047;-80
2024/02/09 05:48:53;;;;;;;2.45;1.05;;;9.40;99.90;;;;;;4896074;29;20052;-80
2024/02/09 05:51:22;;;;;;;2.35;1.10;;;9.30;99.90;;;;;;4877795;29;20130;-80
2024/02/09 05:53:49;;;;;;;2.17;0.80;;;9.40;99.90;;;;;;4880717;29;20047;-80
2024/02/09 05:56:21;;;;;;;2.40;0.93;;;9.40;99.90;;;;;;4880741;29;20064;-80
2024/02/09 05:58:49;;;;;;;4.40;1.20;;;9.40;99.90;;;;;;4879649;29;20075;-80
2024/02/09 06:01:17;;;;;;;1.67;0.70;;;9.40;99.90;;;;;;4880680;29;20383;-80
2024/02/09 06:03:44;;;;;;;4.15;1.13;;;9.40;99.90;;;;;;4878675;29;20045;-80
2024/02/09 06:06:16;;;;;;;2.92;1.40;;;9.40;99.90;;;;;;4877628;29;20145;-80
2024/02/09 06:08:45;;;;;;;3.45;1.30;;;9.40;99.90;;;;;;4875307;29;20067;-80
2024/02/09 06:11:16;;;;;;;5.30;1.20;;;9.40;99.90;;;;;;4878791;29;20045;-80
2024/02/09 06:13:47;;;;;;;2.90;1.00;;;9.40;99.90;;;;;;4880622;29;20052;-80
2024/02/09 06:16:16;;;;;;;2.08;0.80;;;9.40;99.90;;;;;;4876929;29;20131;-80
2024/02/09 06:18:45;;;;;;;3.35;0.80;;;9.40;99.90;;;;;;4880582;29;20049;-80
2024/02/09 06:21:14;;;;;;;4.10;1.02;;;9.40;99.90;;;;;;4877734;29;20057;-80
2024/02/09 06:23:44;;;;;;;1.98;0.88;;;9.40;99.90;;;;;;4887862;29;20044;-80
2024/02/09 06:26:11;;;;;;;3.38;0.80;;;9.40;99.90;;;;;;4899298;29;20049;-80
2024/02/09 06:28:38;;;;;;;1.55;0.70;;;9.40;99.90;;;;;;4899539;29;20136;-80
2024/02/09 06:31:08;;;;;;;1.98;0.70;;;9.40;99.90;;;;;;4883854;29;20128;-80
2024/02/09 06:33:36;;;;;;;1.13;0.45;;;9.40;99.90;;;;;;4868359;29;20467;-80
2024/02/09 06:36:04;;;;;;;3.10;0.80;;;9.40;99.90;;;;;;4880711;29;20090;-80
2024/02/09 06:38:31;;;;;;;2.42;0.70;;;9.40;99.90;;;;;;4881912;29;20044;-80
2024/02/09 06:40:58;;;;;;;2.40;0.80;;;9.40;99.90;;;;;;4883848;29;20053;-80
2024/02/09 06:43:25;;;;;;;1.80;0.77;;;9.40;99.90;;;;;;4899248;29;20490;-80
2024/02/09 06:45:52;;;;;;;2.08;0.82;;;9.40;99.90;;;;;;4865039;29;20081;-80
2024/02/09 06:48:21;;;;;;;1.10;0.43;;;9.50;99.90;;;;;;4878400;29;20115;-80
2024/02/09 06:50:48;;;;;;;1.60;0.82;;;9.40;99.90;;;;;;4883777;29;20120;-80
2024/02/09 06:53:16;;;;;;;3.15;0.73;;;9.40;99.90;;;;;;4883705;29;20040;-80
2024/02/09 06:55:43;;;;;;;1.90;0.80;;;9.50;99.90;;;;;;4898950;29;20049;-80
2024/02/09 06:58:15;;;;;;;2.20;0.80;;;9.50;99.90;;;;;;4876947;29;20562;-80
2024/02/09 07:00:45;;;;;;;2.50;0.95;;;9.50;99.90;;;;;;4883540;29;20087;-80
2024/02/09 07:03:15;;;;;;;5.15;1.30;;;9.50;99.90;;;;;;4898847;29;20104;-80
2024/02/09 07:05:42;;;;;;;3.03;0.90;;;9.50;99.90;;;;;;4883806;29;20048;-80
2024/02/09 07:08:09;;;;;;;2.40;1.00;;;9.50;99.90;;;;;;4898673;29;20048;-81
2024/02/09 07:10:36;;;;;;;1.13;0.60;;;9.50;99.90;;;;;;4882959;29;20052;-81
2024/02/09 07:13:03;;;;;;;2.25;0.57;;;9.50;99.90;;;;;;4887352;29;20040;-81
2024/02/09 07:15:30;;;;;;;2.67;0.60;;;9.50;99.90;;;;;;4883156;29;20048;-81
2024/02/09 07:17:59;;;;;;;2.08;0.80;;;9.50;99.90;;;;;;4854827;29;20053;-80
2024/02/09 07:20:26;;;;;;;3.90;1.40;;;9.50;99.90;;;;;;4883097;29;20494;-80
2024/02/09 07:22:53;;;;;;;1.65;0.60;;;9.50;99.90;;;;;;4879864;29;20060;-80
2024/02/09 07:25:20;;;;;;;3.40;0.70;;;9.50;99.90;;;;;;4871346;29;20045;-80
2024/02/09 07:27:47;;;;;;;1.40;0.70;;;9.50;99.90;;;;;;4858050;29;20410;-80
2024/02/09 07:30:16;;;;;;;1.80;0.60;;;9.50;99.90;;;;;;4898196;29;20052;-80
2024/02/09 07:32:43;;;;;;;1.98;0.80;;;9.60;99.90;;;;;;4882765;29;20060;-80
2024/02/09 07:35:11;;;;;;;2.45;0.68;;;9.50;99.90;;;;;;4898126;29;20041;-80
2024/02/09 07:37:38;;;;;;;2.95;0.95;;;9.60;99.90;;;;;;4881999;29;20052;-80
2024/02/09 07:40:09;;;;;;;2.05;0.80;;;9.60;99.90;;;;;;4882871;29;20048;-80
2024/02/09 07:42:36;;;;;;;2.72;0.93;;;9.60;99.90;;;;;;4883314;29;20135;-81
2024/02/09 07:45:03;;;;;;;3.60;1.15;;;9.60;99.90;;;;;;4882450;29;20053;-80
2024/02/09 07:47:31;;;;;;;4.20;1.23;;;9.60;99.90;;;;;;4882618;29;20045;-81
2024/02/09 07:49:58;;;;;;;2.83;1.30;;;9.60;99.90;;;;;;4879305;29;20087;-80
2024/02/09 07:52:29;;;;;;;5.68;1.75;;;9.60;99.90;;;;;;4869310;29;20450;-80
2024/02/09 07:54:56;;;;;;;3.70;1.20;;;9.60;99.90;;;;;;4879784;29;20045;-80
2024/02/09 07:57:25;;;;;;;4.40;1.00;;;9.70;99.90;;;;;;4882460;29;20155;-80
2024/02/09 07:59:52;;;;;;;2.67;1.20;;;9.70;99.90;;;;;;4882539;29;20084;-79
2024/02/09 08:02:19;;;;;;;4.30;1.20;;;9.70;99.90;;;;;;4882149;29;20068;-79
2024/02/09 08:04:46;;;;;;;3.67;1.08;;;9.70;99.90;;;;;;4882402;29;20052;-83
2024/02/09 08:07:15;;;;;;;2.60;1.00;;;9.80;99.90;;;;;;4865309;29;20083;-80
2024/02/09 08:09:42;;;;;;;3.97;1.13;;;9.80;99.90;;;;;;4897819;29;20490;-80
2024/02/09 08:12:09;;;;;;;4.35;1.67;;;9.80;99.90;;;;;;4881998;29;20486;-80
2024/02/09 08:14:39;;;;;;;2.72;0.90;;;9.80;99.90;;;;;;4882609;29;20493;-79
2024/02/09 08:17:09;;;;;;;2.65;0.95;;;9.80;99.90;;;;;;4882018;29;20044;-79
2024/02/09 08:19:36;;;;;;;2.65;1.05;;;9.80;99.90;;;;;;4881882;29;20049;-79
2024/02/09 08:22:03;;;;;;;5.00;1.33;;;9.80;99.90;;;;;;4881977;29;20484;-76
2024/02/09 08:24:30;;;;;;;3.60;1.55;;;9.80;99.90;;;;;;4897323;29;20490;-77
2024/02/09 08:26:57;;;;;;;3.40;1.38;;;9.80;99.90;;;;;;4898432;29;20045;-78
2024/02/09 08:29:24;;;;;;;4.90;1.30;;;9.80;99.90;;;;;;4897552;29;20041;-82
2024/02/09 08:31:51;;;;;;;4.95;1.30;;;9.80;99.90;;;;;;4896926;29;20059;-86
2024/02/09 08:34:21;;;;;;;5.47;1.38;;;9.80;99.90;;;;;;4867398;29;20131;-83
2024/02/09 08:36:49;;;;;;;3.25;1.17;;;9.80;99.90;;;;;;4882080;29;20059;-86
2024/02/09 08:39:16;;;;;;;3.63;1.55;;;9.80;99.90;;;;;;4867164;29;20100;-84
2024/02/09 08:41:46;;;;;;;3.58;1.45;;;9.90;99.90;;;;;;4882039;29;20056;-84
2024/02/09 08:44:13;;;;;;;3.95;1.30;;;9.90;99.90;;;;;;4897542;29;20408;-85
2024/02/09 08:46:40;;;;;;;3.55;1.40;;;10.00;99.90;;;;;;4881878;29;20045;-84
2024/02/09 08:49:07;;;;;;;3.70;1.40;;;10.00;99.90;;;;;;4881408;29;20066;-84
2024/02/09 08:51:34;;;;;;;4.30;1.60;;;10.00;99.90;;;;;;4866360;29;20044;-83
2024/02/09 08:54:06;;;;;;;3.00;1.27;;;10.10;99.90;;;;;;4878627;29;20045;-93
2024/02/09 08:56:33;;;;;;;4.55;2.10;;;10.10;99.90;;;;;;4874074;29;20488;-85
2024/02/09 08:59:00;;;;;;;5.90;1.65;;;10.10;99.90;;;;;;4881268;29;20040;-84
2024/02/09 09:01:27;;;;;;;4.55;1.48;;;10.10;99.90;;;;;;4881612;29;20143;-84
2024/02/09 09:03:55;;;;;;;4.47;1.23;;;10.20;99.90;;;;;;4866019;29;20128;-76
2024/02/09 09:06:23;;;;;;;4.85;1.20;;;10.20;99.90;;;;;;4897658;29;20056;-76
2024/02/09 09:08:50;;;;;;;4.97;1.40;;;10.30;99.90;;;;;;4896317;29;20100;-76
2024/02/09 09:11:18;;;;;;;4.45;1.55;;;10.30;99.90;;;;;;4880798;29;20052;-76
2024/02/09 09:13:46;;;;;;;4.10;1.80;;;10.30;99.90;;;;;;4880984;29;20057;-75
2024/02/09 09:16:16;;;;;;;4.78;1.65;;;10.30;99.90;;;;;;4881152;29;20052;-76
2024/02/09 09:18:45;;;;;;;3.22;1.25;;;10.30;99.90;;;;;;4897818;29;20041;-76
2024/02/09 09:21:13;;;;;;;3.80;1.73;;;10.30;99.90;;;;;;4896480;29;20493;-76
2024/02/09 09:23:40;;;;;;;8.02;2.05;;;10.40;99.90;;;;;;4896464;29;20049;-76
2024/02/09 09:26:07;;;;;;;6.38;2.25;;;10.50;99.90;;;;;;4896602;29;20059;-76
2024/02/09 09:28:51;;;;;;;6.88;2.45;;;10.60;99.90;;;;;;4887244;29;20056;-76
2024/02/09 09:31:19;;;;;;;6.60;1.80;;;10.60;99.90;;;;;;4896180;29;20075;-76
2024/02/09 09:33:50;;;;;;;4.47;2.05;;;10.70;99.90;;;;;;4883944;29;20048;-76
2024/02/09 09:36:18;;;;;;;4.93;2.00;;;10.70;99.90;;;;;;4896479;29;20037;-76
2024/02/09 09:38:45;;;;;;;7.03;2.22;;;10.70;99.90;;;;;;4881050;29;20048;-76
2024/02/09 09:41:12;;;;;;;7.78;2.25;;;10.70;99.90;;;;;;4896506;29;20049;-76
2024/02/09 09:43:40;;;;;;;4.53;1.90;;;10.70;99.90;;;;;;4881300;29;20053;-78
2024/02/09 09:46:11;;;;;;;5.82;1.98;;;10.70;99.90;;;;;;4897626;29;20131;-79
2024/02/09 09:48:39;;;;;;;3.38;1.20;;;10.70;99.90;;;;;;4881251;29;20049;-77
2024/02/09 09:51:06;;;;;;;4.13;1.88;;;10.70;99.90;;;;;;4880655;29;20059;-77
2024/02/09 09:53:38;;;;;;;5.03;2.35;;;10.70;99.90;;;;;;4881105;29;20437;-76
2024/02/09 09:56:09;;;;;;;7.55;2.58;;;10.70;99.90;;;;;;4880787;29;20045;-76
2024/02/09 09:58:37;;;;;;;5.22;2.30;;;10.70;99.90;;;;;;4896181;29;20063;-76
2024/02/09 10:01:09;;;;;;;5.18;2.10;;;10.70;99.90;;;;;;4899595;29;20163;-76
2024/02/09 10:03:39;;;;;;;3.03;1.80;;;10.70;99.90;;;;;;4899731;29;20055;-76
2024/02/09 10:06:06;;;;;;;4.75;1.73;;;10.70;99.90;;;;;;4884075;29;20059;-76
2024/02/09 10:08:38;;;;;;;4.05;1.60;;;10.70;99.90;;;;;;4899783;29;20147;-76
2024/02/09 10:11:06;;;;;;;3.33;1.85;;;10.80;99.90;;;;;;4900761;29;20064;-76
2024/02/09 10:13:35;;;;;;;8.32;1.55;;;10.80;99.90;;;;;;4899824;29;20092;-77
2024/02/09 10:16:03;;;;;;;2.22;1.08;;;10.80;99.90;;;;;;4884129;29;20055;-76
2024/02/09 10:18:35;;;;;;;3.45;1.58;;;10.80;99.90;;;;;;4883965;29;20502;-76
2024/02/09 10:21:05;;;;;;;;;;;10.90;99.90;;;;;;4880933;29;20049;-78
2024/02/09 10:23:34;;;;;;;3.78;1.75;;;10.90;99.90;;;;;;4899409;29;19928;-78
2024/02/09 10:26:05;;;;;;;2.55;1.02;;;11.00;99.90;;;;;;4899487;29;20048;-78
2024/02/09 10:28:33;;;;;;;3.65;1.77;;;11.20;99.90;;;;;;4899863;29;20048;-76
2024/02/09 10:31:00;;;;;;;6.60;2.20;;;11.20;99.90;;;;;;4900391;29;20071;-76
2024/02/09 10:33:28;;;;;;;4.22;1.58;;;11.20;99.90;;;;;;4899042;29;20044;-76
2024/02/09 10:35:55;;;;;;;4.18;1.98;;;11.20;99.90;;;;;;4900060;29;20482;-76
2024/02/09 10:38:23;;;;;;;5.50;2.28;;;11.20;99.90;;;;;;4899082;29;20127;-76
2024/02/09 10:40:54;;;;;;;5.05;1.48;;;11.20;99.90;;;;;;4883642;29;20116;-78
2024/02/09 10:43:23;;;;;;;4.38;1.75;;;11.20;99.90;;;;;;4883849;29;20549;-78
2024/02/09 10:45:51;;;;;;;4.47;1.25;;;11.20;99.90;;;;;;4899108;29;20082;-76
2024/02/09 10:48:28;;;;;;;6.67;2.00;;;11.30;99.90;;;;;;4900257;29;20059;-77
2024/02/09 10:50:56;;;;;;;4.18;1.33;;;11.30;99.90;;;;;;4900124;29;20326;-76
2024/02/09 10:53:27;;;;;;;3.67;1.75;;;11.20;99.90;;;;;;4900068;29;20127;-77
2024/02/09 10:56:02;;;;;;;2.13;1.02;;;11.30;99.90;;;;;;4890792;29;20096;-76
2024/02/09 10:58:34;;;;;;;3.22;1.23;;;11.30;99.90;;;;;;4900172;29;20119;-76
2024/02/09 11:01:05;;;;;;;3.85;1.20;;;11.30;99.90;;;;;;4891646;29;20052;-76
2024/02/09 11:03:33;;;;;;;4.45;1.30;;;11.30;99.90;;;;;;4898675;29;20148;-78
2024/02/09 11:06:02;;;;;;;5.72;1.20;;;11.30;99.90;;;;;;4883203;29;20045;-76
2024/02/09 11:08:33;;;;;;;2.22;1.00;;;11.40;99.90;;;;;;4883478;29;20049;-77
2024/02/09 11:11:04;;;;;;;4.00;1.13;;;11.60;99.90;;;;;;4898690;29;20100;-76
2024/02/09 11:13:33;;;;;;;3.63;1.30;;;11.70;99.90;;;;;;4883264;29;20508;-76
2024/02/09 11:16:01;;;;;;;3.45;1.75;;;11.70;99.90;;;;;;4896831;29;20048;-76
2024/02/09 11:18:34;;;;;;;4.35;1.63;;;11.70;99.90;;;;;;4899795;29;20490;-76
2024/02/09 11:21:07;;;;;;;;;;;11.60;99.90;;;;;;4883968;29;20044;-76
2024/02/09 11:23:43;;;;;;;7.03;1.90;;;11.50;99.90;;;;;;4889469;29;20452;-77
2024/02/09 11:26:11;;;;;;;4.25;1.80;;;11.40;99.90;;;;;;4882830;29;20055;-84
2024/02/09 11:28:38;;;;;;;4.50;1.77;;;11.30;99.90;;;;;;4869922;29;20057;-82
2024/02/09 11:31:10;;;;;;;4.63;1.90;;;11.30;99.90;;;;;;4867675;29;20135;-83
2024/02/09 11:34:11;;;;;;;4.60;1.58;;;11.30;99.90;;;;;;4879842;29;20388;-90
2024/02/09 11:36:40;;;;;;;3.80;1.73;;;11.40;99.90;;;;;;4894324;29;20112;-83
2024/02/09 11:39:09;;;;;;;4.07;1.50;;;11.40;99.90;;;;;;4880350;29;20048;-86
2024/02/09 11:41:37;;;;;;;3.35;1.40;;;11.50;99.90;;;;;;4883107;29;20053;-83
2024/02/09 11:44:04;;;;;;;5.00;1.27;;;11.50;99.90;;;;;;4867058;29;20502;-83
2024/02/09 11:46:35;;;;;;;3.95;1.40;;;11.60;99.90;;;;;;4879411;29;20048;-87
2024/02/09 11:49:06;;;;;;;4.72;1.95;;;11.70;99.90;;;;;;4879782;29;20109;-88
2024/02/09 11:51:34;;;;;;;3.33;1.20;;;11.80;99.90;;;;;;4891513;29;20119;-88
2024/02/09 11:54:03;;;;;;;3.08;0.90;;;11.80;99.90;;;;;;4869071;29;20396;-84
2024/02/09 11:56:31;;;;;;;4.30;1.67;;;11.90;99.90;;;;;;4880125;29;20084;-86
2024/02/09 11:58:59;;;;;;;4.65;1.92;;;11.90;99.90;;;;;;4865606;29;20041;-83
2024/02/09 12:01:26;;;;;;;8.05;2.83;;;11.90;99.90;;;;;;4882304;29;20045;-78
2024/02/09 12:03:53;;;;;;;4.40;1.58;;;11.90;99.90;;;;;;4897741;29;20049;-78
2024/02/09 12:06:29;;;;;;;5.47;1.98;;;11.90;99.90;;;;;;4882964;29;20120;-87
2024/02/09 12:08:58;;;;;;;5.90;1.67;;;11.90;99.90;;;;;;4883115;29;20053;-86
2024/02/09 12:11:28;;;;;;;5.32;1.83;;;11.80;99.90;;;;;;4882587;29;20055;-84
2024/02/09 12:13:55;;;;;;;6.75;1.73;;;11.90;99.90;;;;;;4882460;29;20045;-86
2024/02/09 12:16:22;;;;;;;4.00;1.52;;;11.90;99.90;;;;;;4882323;29;20041;-86
2024/02/09 12:18:54;;;;;;;3.05;1.42;;;11.90;99.90;;;;;;4882438;29;20410;-86
2024/02/09 12:21:22;;;;;;;5.65;1.15;;;12.00;99.90;;;;;;4864035;29;20144;-84
2024/02/09 12:23:50;;;;;;;3.35;1.40;;;12.10;99.90;;;;;;4890424;29;20413;-86
2024/02/09 12:26:20;;;;;;;6.68;1.98;;;12.20;99.90;;;;;;4866694;29;20053;-82
2024/02/09 12:28:51;;;;;;;5.78;1.80;;;12.20;99.90;;;;;;4882571;29;20051;-85
2024/02/09 12:31:21;;;;;;;5.18;2.25;;;12.30;99.90;;;;;;4881787;29;20068;-86
2024/02/09 12:33:50;;;;;;;5.80;1.63;;;12.30;99.90;;;;;;4881931;29;20050;-87
2024/02/09 12:36:20;;;;;;;2.40;0.93;;;12.20;99.90;;;;;;4882278;29;20052;-84
2024/02/09 12:38:55;;;;;;;3.97;1.60;;;12.20;99.90;;;;;;4897296;29;20097;-84
2024/02/09 12:41:24;;;;;;;4.15;1.73;;;12.30;99.90;;;;;;4865650;29;20063;-82
2024/02/09 12:44:08;;;;;;;5.43;1.88;;;12.40;99.90;;;;;;4881669;29;20493;-84
2024/02/09 12:46:36;;;;;;;3.42;1.70;;;12.50;99.90;;;;;;4863998;29;20057;-82
2024/02/09 12:49:08;;;;;;;4.57;1.85;;;12.40;99.90;;;;;;4881754;29;20076;-81
2024/02/09 12:51:36;;;;;;;6.40;1.63;;;12.40;99.90;;;;;;4867038;29;20059;-82
2024/02/09 12:54:07;;;;;;;4.15;1.15;;;12.40;99.90;;;;;;4878489;29;20049;-82
2024/02/09 12:56:35;;;;;;;3.97;1.63;;;12.40;99.90;;;;;;4874757;29;20048;-81
2024/02/09 12:59:02;;;;;;;3.35;1.23;;;12.40;99.90;;;;;;4881876;29;20045;-85
2024/02/09 13:01:29;;;;;;;1.73;0.73;;;12.40;99.90;;;;;;4882279;29;20063;-86
2024/02/09 13:03:56;;;;;;;5.00;1.30;;;12.40;99.90;;;;;;4866653;29;20101;-85
2024/02/09 13:06:23;;;;;;;3.67;1.73;;;12.40;99.90;;;;;;4878204;29;20048;-84
2024/02/09 13:08:50;;;;;;;3.00;0.90;;;12.40;99.90;;;;;;4872525;29;20489;-86
2024/02/09 13:11:18;;;;;;;2.75;1.08;;;12.40;99.90;;;;;;4882303;29;20059;-86
2024/02/09 13:13:46;;;;;;;2.90;0.98;;;12.40;99.90;;;;;;4882216;29;20049;-86
2024/02/09 13:16:13;;;;;;;3.95;1.45;;;12.30;99.90;;;;;;4897306;29;20076;-83
2024/02/09 13:18:40;;;;;;;3.25;0.82;;;12.40;99.90;;;;;;4881887;29;20489;-87
2024/02/09 13:21:07;;;;;;;2.70;1.17;;;12.40;99.90;;;;;;4882274;29;20091;-86
2024/02/09 13:23:35;;;;;;;3.15;1.15;;;12.40;99.90;;;;;;4866161;29;20434;-86
2024/02/09 13:26:09;;;;;;;2.50;0.90;;;12.40;99.90;;;;;;4880668;29;20053;-87
2024/02/09 13:28:39;;;;;;;1.73;0.77;;;12.40;99.90;;;;;;4882552;29;20072;-86
2024/02/09 13:31:10;;;;;;;3.58;0.77;;;12.40;99.90;;;;;;4881878;29;20067;-85
2024/02/09 13:33:38;;;;;;;2.38;0.65;;;12.40;99.90;;;;;;4881490;29;20049;-81
2024/02/09 13:36:08;;;;;;;3.25;1.00;;;12.40;99.90;;;;;;4884768;29;20140;-86
2024/02/09 13:38:36;;;;;;;5.43;1.52;;;12.40;99.90;;;;;;4870419;29;20044;-85
2024/02/09 13:41:04;;;;;;;3.22;1.02;;;12.40;99.90;;;;;;4881889;29;20053;-83
2024/02/09 13:43:33;;;;;;;5.00;0.88;;;12.40;99.90;;;;;;4885195;29;20147;-88
2024/02/09 13:46:00;;;;;;;3.28;0.90;;;12.40;99.90;;;;;;4884651;29;20056;-84
2024/02/09 13:48:27;;;;;;;2.63;0.60;;;12.40;99.90;;;;;;4865939;29;20053;-84
2024/02/09 13:50:54;;;;;;;4.20;0.95;;;12.40;99.90;;;;;;4893553;29;20071;-85
2024/02/09 13:53:21;;;;;;;2.22;0.63;;;12.40;99.90;;;;;;4878098;29;20041;-86
2024/02/09 13:55:48;;;;;;;2.80;0.65;;;12.50;99.90;;;;;;4869206;29;20048;-83
2024/02/09 13:58:15;;;;;;;3.45;0.65;;;12.40;99.90;;;;;;4868973;29;20048;-84
2024/02/09 14:00:43;;;;;;;1.17;0.50;;;12.50;99.90;;;;;;4885400;29;20045;-89
2024/02/09 14:03:10;;;;;;;1.67;0.40;;;12.40;99.90;;;;;;4852045;29;20053;-93
2024/02/09 14:05:38;;;;;;;1.25;0.55;;;12.40;99.90;;;;;;4885385;29;20139;-91
2024/02/09 14:08:06;;;;;;;1.92;0.50;;;12.40;99.90;;;;;;4885357;29;20055;-90
2024/02/09 14:10:35;;;;;;;0.60;0.32;;;12.40;99.90;;;;;;4885386;29;20496;-89
2024/02/09 14:13:03;;;;;;;1.25;0.40;;;12.40;99.90;;;;;;4885605;29;20041;-92
2024/02/09 14:15:33;;;;;;;2.25;0.55;;;12.40;99.90;;;;;;4881729;29;20120;-80
2024/02/09 14:18:01;;;;;;;1.90;0.40;;;12.50;99.90;;;;;;4879982;29;20076;-81
2024/02/09 14:20:29;;;;;;;1.70;0.40;;;12.40;99.90;;;;;;4899611;29;20413;-80
2024/02/09 14:22:59;;;;;;;0.80;0.40;;;12.50;99.90;;;;;;4884882;29;20045;-86
2024/02/09 14:25:30;;;;;;;1.83;0.60;;;12.50;99.90;;;;;;4899923;29;20055;-83
2024/02/09 14:27:57;;;;;;;2.50;0.80;;;12.40;99.90;;;;;;4883984;29;20135;-84
2024/02/09 14:30:24;;;;;;;2.53;0.70;;;12.40;99.90;;;;;;4884217;29;20074;-87
2024/02/09 14:32:51;;;;;;;1.95;0.55;;;12.30;99.90;;;;;;4900051;29;20049;-86
2024/02/09 14:35:18;;;;;;;1.63;0.70;;;12.30;99.90;;;;;;4884474;29;20049;-85
2024/02/09 14:37:46;;;;;;;2.15;0.65;;;12.30;99.90;;;;;;4880732;29;20049;-85
2024/02/09 14:40:13;;;;;;;2.03;0.52;;;12.40;99.90;;;;;;4850130;29;20195;-81
2024/02/09 14:42:41;;;;;;;3.00;0.50;;;12.40;99.90;;;;;;4874390;29;20088;-81
2024/02/09 14:45:10;;;;;;;1.50;0.75;;;12.50;99.90;;;;;;4883371;29;20113;-82
2024/02/09 14:47:37;;;;;;;2.10;0.70;;;12.50;99.90;;;;;;4880638;29;20056;-83
2024/02/09 14:50:08;;;;;;;1.42;0.50;;;12.60;99.90;;;;;;4875813;29;20470;-83